Time;durP1;ratioP1;P1;durP2;ratioP2;P2;SDS_P1;SDS_P2;PMS_P1;PMS_P2;Temp;Humidity;BMP_temperature;BMP_pressure;BME280_temperature;BME280_humidity;BME280_pressure;Samples;Min_cycle;Max_cycle;Signal;HPM_P1;HPM_P2
2020/12/12 00:00:25;;;;;;;31.00;19.45;;;;;;;;;;5093005;28;20436;-74
2020/12/12 00:02:50;;;;;;;28.95;18.67;;;;;;;;;;5094288;28;20462;-74
2020/12/12 00:05:16;;;;;;;29.90;20.17;;;;;;;;;;5093711;28;20119;-74
2020/12/12 00:07:41;;;;;;;27.20;17.98;;;;;;;;;;5094095;28;20039;-73
2020/12/12 00:10:06;;;;;;;37.75;22.55;;;;;;;;;;5094077;28;20131;-74
2020/12/12 00:12:31;;;;;;;34.28;20.33;;;;;;;;;;5094262;28;20024;-73
2020/12/12 00:14:57;;;;;;;29.30;19.27;;;;;;;;;;5094129;28;20039;-74
2020/12/12 00:17:22;;;;;;;34.10;19.48;;;;;;;;;;5094096;28;20031;-74
2020/12/12 00:19:48;;;;;;;29.10;18.95;;;;;;;;;;5093782;28;20112;-74
2020/12/12 00:22:13;;;;;;;34.40;19.70;;;;;;;;;;5093238;28;20217;-74
2020/12/12 00:24:39;;;;;;;29.00;19.33;;;;;;;;;;5093882;28;20485;-74
2020/12/12 00:27:04;;;;;;;29.38;18.30;;;;;;;;;;5093987;28;20418;-74
2020/12/12 00:29:30;;;;;;;29.48;19.58;;;;;;;;;;5093633;28;20028;-74
2020/12/12 00:31:57;;;;;;;28.88;17.48;;;;;;;;;;5093389;28;20476;-74
2020/12/12 00:34:28;;;;;;;28.67;18.77;;;;;;;;;;5093456;28;20047;-74
2020/12/12 00:36:54;;;;;;;30.17;18.58;;;;;;;;;;5092189;28;20039;-74
2020/12/12 00:39:21;;;;;;;27.58;17.50;;;;;;;;;;5093225;28;20163;-73
2020/12/12 00:41:46;;;;;;;24.55;17.17;;;;;;;;;;5093748;28;20028;-74
2020/12/12 00:44:15;;;;;;;25.40;18.00;;;;;;;;;;5093545;28;20440;-74
2020/12/12 00:46:41;;;;;;;26.33;17.52;;;;;;;;;;5092354;28;20032;-74
2020/12/12 00:49:07;;;;;;;25.08;16.77;;;;;;;;;;5093406;28;20046;-74
2020/12/12 00:51:33;;;;;;;26.73;17.58;;;;;;;;;;5091949;28;20032;-74
2020/12/12 00:53:59;;;;;;;27.75;17.55;;;;;;;;;;5093059;28;20028;-74
2020/12/12 00:56:25;;;;;;;23.92;16.23;;;;;;;;;;5092013;28;20032;-74
2020/12/12 00:58:50;;;;;;;27.42;17.70;;;;;;;;;;5093334;28;20044;-74
2020/12/12 01:01:16;;;;;;;36.47;17.35;;;;;;;;;;5093212;28;20042;-74
2020/12/12 01:03:42;;;;;;;27.95;18.30;;;;;;;;;;5091988;28;20122;-74
2020/12/12 01:06:12;;;;;;;25.27;17.67;;;;;;;;;;5093270;28;20040;-74
2020/12/12 01:08:38;;;;;;;25.50;17.17;;;;;;;;;;5093383;28;20473;-73
2020/12/12 01:11:05;;;;;;;25.02;16.52;;;;;;;;;;5093272;28;20079;-74
2020/12/12 01:13:30;;;;;;;29.48;18.05;;;;;;;;;;5093039;28;20097;-74
2020/12/12 01:15:56;;;;;;;24.13;17.00;;;;;;;;;;5091033;28;20028;-74
2020/12/12 01:18:22;;;;;;;24.90;17.08;;;;;;;;;;5093257;28;20067;-74
2020/12/12 01:20:47;;;;;;;25.98;17.10;;;;;;;;;;5092496;28;20043;-74
2020/12/12 01:23:12;;;;;;;26.40;16.73;;;;;;;;;;5093307;28;20031;-74
2020/12/12 01:25:38;;;;;;;26.35;17.42;;;;;;;;;;5093292;28;20471;-74
2020/12/12 01:28:07;;;;;;;31.00;18.42;;;;;;;;;;5091999;28;20496;-74
2020/12/12 01:30:35;;;;;;;26.13;17.63;;;;;;;;;;5092944;28;20047;-74
2020/12/12 01:33:00;;;;;;;26.10;17.00;;;;;;;;;;5093192;28;20036;-73
2020/12/12 01:35:26;;;;;;;26.95;17.58;;;;;;;;;;5092623;28;20040;-74
2020/12/12 01:37:51;;;;;;;26.40;18.08;;;;;;;;;;5093123;28;20032;-74
2020/12/12 01:40:17;;;;;;;29.25;18.25;;;;;;;;;;5092938;28;20132;-74
2020/12/12 01:42:42;;;;;;;25.52;16.70;;;;;;;;;;5093127;28;20078;-74
2020/12/12 01:45:08;;;;;;;25.02;17.25;;;;;;;;;;5096992;28;20032;-74
2020/12/12 01:47:34;;;;;;;29.13;18.55;;;;;;;;;;5096407;28;20040;-74
2020/12/12 01:50:00;;;;;;;30.48;18.15;;;;;;;;;;5096678;28;20480;-74
2020/12/12 01:52:27;;;;;;;26.00;17.23;;;;;;;;;;5096814;28;20031;-74
2020/12/12 01:54:52;;;;;;;28.20;17.88;;;;;;;;;;5096784;28;20039;-74
2020/12/12 01:57:20;;;;;;;26.88;17.73;;;;;;;;;;5096623;28;20028;-74
2020/12/12 01:59:46;;;;;;;28.00;17.27;;;;;;;;;;5096600;28;20044;-74
2020/12/12 02:02:11;;;;;;;24.80;17.02;;;;;;;;;;5095359;28;20105;-74
2020/12/12 02:04:46;;;;;;;21.45;14.90;;;;;;;;;;5096426;28;20075;-74
2020/12/12 02:07:14;;;;;;;21.73;15.77;;;;;;;;;;5095596;28;20472;-74
2020/12/12 02:09:39;;;;;;;24.10;16.13;;;;;;;;;;5096529;28;20500;-73
2020/12/12 02:12:05;;;;;;;23.05;15.95;;;;;;;;;;5096726;28;20068;-74
2020/12/12 02:14:32;;;;;;;23.65;16.15;;;;;;;;;;5096334;28;20107;-74
2020/12/12 02:16:59;;;;;;;24.02;16.65;;;;;;;;;;5096101;28;20032;-74
2020/12/12 02:19:25;;;;;;;24.08;15.95;;;;;;;;;;5096295;28;20110;-74
2020/12/12 02:21:58;;;;;;;26.45;16.70;;;;;;;;;;5095964;28;20114;-73
2020/12/12 02:24:33;;;;;;;26.83;17.25;;;;;;;;;;5096251;28;20051;-74
2020/12/12 02:26:59;;;;;;;23.15;15.85;;;;;;;;;;5096225;28;20032;-74
2020/12/12 02:32:09;;;;;;;24.80;16.23;;;;;;;;;;5095850;28;20047;-74
2020/12/12 02:34:35;;;;;;;19.48;13.38;;;;;;;;;;5096070;28;20062;-74
2020/12/12 02:37:00;;;;;;;25.65;15.75;;;;;;;;;;5095955;28;20032;-74
2020/12/12 02:39:25;;;;;;;24.40;16.38;;;;;;;;;;5095717;28;20038;-74
2020/12/12 02:41:51;;;;;;;22.50;14.90;;;;;;;;;;5095913;28;20115;-74
2020/12/12 02:44:16;;;;;;;24.80;16.65;;;;;;;;;;5095639;28;20039;-74
2020/12/12 02:46:41;;;;;;;23.98;13.77;;;;;;;;;;5095474;28;20039;-74
2020/12/12 02:49:07;;;;;;;22.60;15.07;;;;;;;;;;5095776;28;20054;-74
2020/12/12 02:51:38;;;;;;;18.33;12.85;;;;;;;;;;5094380;28;20050;-74
2020/12/12 02:54:03;;;;;;;18.95;13.25;;;;;;;;;;5095560;28;20039;-74
2020/12/12 02:56:29;;;;;;;16.13;11.60;;;;;;;;;;5095271;28;20044;-74
2020/12/12 02:58:54;;;;;;;18.75;12.55;;;;;;;;;;5095346;28;20142;-74
2020/12/12 03:01:19;;;;;;;19.23;13.45;;;;;;;;;;5095172;28;20460;-74
2020/12/12 03:03:45;;;;;;;19.55;13.38;;;;;;;;;;5095514;28;20525;-74
2020/12/12 03:06:10;;;;;;;19.08;12.23;;;;;;;;;;5095409;28;20042;-74
2020/12/12 03:08:35;;;;;;;16.40;11.65;;;;;;;;;;5095122;28;20031;-74
2020/12/12 03:11:00;;;;;;;18.80;12.88;;;;;;;;;;5095143;28;20032;-74
2020/12/12 03:13:26;;;;;;;16.58;12.25;;;;;;;;;;5095139;28;20062;-74
2020/12/12 03:15:51;;;;;;;17.60;11.82;;;;;;;;;;5095086;28;20142;-74
2020/12/12 03:18:17;;;;;;;16.45;11.45;;;;;;;;;;5094788;28;20035;-74
2020/12/12 03:20:42;;;;;;;17.85;12.32;;;;;;;;;;5094996;28;20046;-74
2020/12/12 03:23:07;;;;;;;16.73;11.80;;;;;;;;;;5094660;28;20028;-73
2020/12/12 03:25:33;;;;;;;18.63;12.85;;;;;;;;;;5095013;28;20377;-74
2020/12/12 03:27:58;;;;;;;16.15;12.20;;;;;;;;;;5093874;28;20537;-74
2020/12/12 03:30:24;;;;;;;14.88;10.82;;;;;;;;;;5094912;28;20040;-74
2020/12/12 03:32:49;;;;;;;16.00;11.15;;;;;;;;;;5094726;28;20040;-74
2020/12/12 03:35:14;;;;;;;19.05;12.55;;;;;;;;;;5094703;28;20036;-74
2020/12/12 03:37:40;;;;;;;18.95;12.65;;;;;;;;;;5094807;28;20060;-74
2020/12/12 03:40:05;;;;;;;15.65;11.82;;;;;;;;;;5094958;28;20405;-74
2020/12/12 03:42:31;;;;;;;18.50;13.73;;;;;;;;;;5094740;28;20161;-74
2020/12/12 03:44:56;;;;;;;15.05;11.13;;;;;;;;;;5094734;28;20062;-74
2020/12/12 03:47:21;;;;;;;15.85;11.75;;;;;;;;;;5093700;28;20086;-74
2020/12/12 03:49:47;;;;;;;15.38;11.10;;;;;;;;;;5094357;28;20092;-74
2020/12/12 03:52:14;;;;;;;13.65;10.90;;;;;;;;;;5094582;28;20081;-74
2020/12/12 03:54:39;;;;;;;15.43;11.02;;;;;;;;;;5094274;28;20497;-74
2020/12/12 03:57:06;;;;;;;17.85;12.65;;;;;;;;;;5094503;28;20067;-74
2020/12/12 03:59:31;;;;;;;17.42;11.95;;;;;;;;;;5094298;28;20044;-74
2020/12/12 04:01:56;;;;;;;18.65;13.00;;;;;;;;;;5094115;28;20507;-74
2020/12/12 04:04:22;;;;;;;19.38;14.43;;;;;;;;;;5094511;28;20035;-74
2020/12/12 04:06:47;;;;;;;20.00;13.68;;;;;;;;;;5093371;28;20046;-74
2020/12/12 04:09:12;;;;;;;18.60;13.95;;;;;;;;;;5094016;28;20028;-73
2020/12/12 04:11:38;;;;;;;18.70;13.55;;;;;;;;;;5093984;28;20093;-74
2020/12/12 04:14:03;;;;;;;19.42;13.77;;;;;;;;;;5094317;28;20040;-74
2020/12/12 04:16:29;;;;;;;16.55;12.65;;;;;;;;;;5093765;28;20043;-74
2020/12/12 04:18:55;;;;;;;19.67;14.40;;;;;;;;;;5093240;28;20493;-74
2020/12/12 04:21:20;;;;;;;18.90;14.45;;;;;;;;;;5093844;28;20034;-74
2020/12/12 04:23:45;;;;;;;17.85;13.80;;;;;;;;;;5094006;28;20039;-74
2020/12/12 04:26:11;;;;;;;20.67;14.48;;;;;;;;;;5093647;28;20040;-74
2020/12/12 04:28:38;;;;;;;23.35;14.93;;;;;;;;;;5093666;28;20028;-74
2020/12/12 04:31:04;;;;;;;20.45;13.77;;;;;;;;;;5093419;28;20050;-74
2020/12/12 04:33:29;;;;;;;22.10;15.60;;;;;;;;;;5094020;28;20040;-74
2020/12/12 04:35:54;;;;;;;20.17;14.73;;;;;;;;;;5093875;28;20035;-74
2020/12/12 04:38:20;;;;;;;20.30;14.82;;;;;;;;;;5092657;28;20078;-74
2020/12/12 04:40:47;;;;;;;22.02;14.55;;;;;;;;;;5093658;28;20056;-74
2020/12/12 04:43:12;;;;;;;21.92;15.63;;;;;;;;;;5093380;28;20040;-74
2020/12/12 04:45:40;;;;;;;20.50;15.00;;;;;;;;;;5093714;28;20043;-74
2020/12/12 04:48:06;;;;;;;20.75;14.52;;;;;;;;;;5093356;28;20428;-74
2020/12/12 04:50:32;;;;;;;20.83;14.82;;;;;;;;;;5093237;28;20032;-74
2020/12/12 04:53:12;;;;;;;21.77;14.95;;;;;;;;;;5093270;28;20089;-74
2020/12/12 04:55:45;;;;;;;22.67;16.33;;;;;;;;;;5093613;28;20032;-74
2020/12/12 04:58:14;;;;;;;23.35;15.25;;;;;;;;;;5093261;28;20126;-74
2020/12/12 05:00:43;;;;;;;23.60;16.20;;;;;;;;;;5093138;28;20077;-74
2020/12/12 05:03:11;;;;;;;22.63;16.23;;;;;;;;;;5092982;28;20032;-74
2020/12/12 05:05:37;;;;;;;24.75;16.90;;;;;;;;;;5093200;28;20050;-74
2020/12/12 05:08:02;;;;;;;24.40;15.75;;;;;;;;;;5093280;28;20039;-74
2020/12/12 05:10:35;;;;;;;24.77;16.95;;;;;;;;;;5093390;28;20039;-74
2020/12/12 05:13:00;;;;;;;23.75;16.63;;;;;;;;;;5093281;28;20466;-74
2020/12/12 05:15:26;;;;;;;27.52;17.67;;;;;;;;;;5093203;28;20063;-74
2020/12/12 05:17:51;;;;;;;24.67;17.00;;;;;;;;;;5094112;28;20027;-74
2020/12/12 05:20:16;;;;;;;25.23;18.45;;;;;;;;;;5097194;28;20466;-74
2020/12/12 05:22:42;;;;;;;26.27;17.02;;;;;;;;;;5097565;28;20062;-74
2020/12/12 05:25:07;;;;;;;23.67;16.05;;;;;;;;;;5097106;28;20485;-74
2020/12/12 05:27:33;;;;;;;25.63;16.85;;;;;;;;;;5096871;28;20043;-74
2020/12/12 05:29:58;;;;;;;22.92;16.55;;;;;;;;;;5097461;28;20374;-74
2020/12/12 05:32:24;;;;;;;23.45;16.50;;;;;;;;;;5097166;28;20034;-74
2020/12/12 05:34:53;;;;;;;21.33;15.63;;;;;;;;;;5097211;28;20370;-74
2020/12/12 05:37:18;;;;;;;25.20;16.80;;;;;;;;;;5095720;28;20035;-74
2020/12/12 05:39:48;;;;;;;22.20;16.30;;;;;;;;;;5097238;28;20120;-74
2020/12/12 05:42:19;;;;;;;23.92;16.55;;;;;;;;;;5097091;28;20043;-74
2020/12/12 05:44:47;;;;;;;23.77;17.58;;;;;;;;;;5096458;28;20042;-74
2020/12/12 05:47:14;;;;;;;25.42;18.33;;;;;;;;;;5096626;28;20099;-74
2020/12/12 05:49:39;;;;;;;24.15;17.17;;;;;;;;;;5096770;28;20123;-74
2020/12/12 05:52:05;;;;;;;23.75;16.38;;;;;;;;;;5096981;28;20428;-74
2020/12/12 05:54:31;;;;;;;20.25;14.15;;;;;;;;;;5096876;28;20549;-74
2020/12/12 05:56:59;;;;;;;16.85;13.10;;;;;;;;;;5096805;28;20447;-74
2020/12/12 05:59:24;;;;;;;19.60;14.23;;;;;;;;;;5095365;28;20064;-74
2020/12/12 06:01:54;;;;;;;20.20;13.60;;;;;;;;;;5096240;28;20496;-74
2020/12/12 06:04:24;;;;;;;19.13;12.80;;;;;;;;;;5096641;28;20122;-74
2020/12/12 06:06:56;;;;;;;25.77;18.58;;;;;;;;;;5096596;28;20040;-74
2020/12/12 06:09:34;;;;;;;23.80;17.85;;;;;;;;;;5094979;28;20036;-74
2020/12/12 06:12:02;;;;;;;24.77;17.85;;;;;;;;;;5096457;28;20119;-74
2020/12/12 06:14:30;;;;;;;22.15;15.75;;;;;;;;;;5096562;28;20044;-74
2020/12/12 06:16:56;;;;;;;22.08;16.90;;;;;;;;;;5096071;28;20063;-74
2020/12/12 06:19:31;;;;;;;27.88;18.75;;;;;;;;;;5096113;28;20055;-74
2020/12/12 06:21:57;;;;;;;27.17;19.30;;;;;;;;;;5096241;28;20058;-74
2020/12/12 06:24:22;;;;;;;31.55;19.02;;;;;;;;;;5096250;28;20032;-74
2020/12/12 06:27:07;;;;;;;30.67;19.27;;;;;;;;;;5095836;28;20028;-74
2020/12/12 06:29:42;;;;;;;28.58;20.00;;;;;;;;;;5095271;28;20036;-74
2020/12/12 06:32:15;;;;;;;30.55;20.75;;;;;;;;;;5095749;28;20031;-74
2020/12/12 06:34:45;;;;;;;32.50;20.85;;;;;;;;;;5095869;28;20028;-74
2020/12/12 06:37:39;;;;;;;32.35;20.77;;;;;;;;;;5095925;28;20040;-74
2020/12/12 06:40:07;;;;;;;39.55;23.30;;;;;;;;;;5096004;28;20036;-74
2020/12/12 06:42:40;;;;;;;37.22;22.00;;;;;;;;;;5095967;28;20472;-74
2020/12/12 06:45:18;;;;;;;38.83;22.75;;;;;;;;;;5095812;28;20541;-74
2020/12/12 06:47:45;;;;;;;33.40;20.52;;;;;;;;;;5095515;28;20036;-74
2020/12/12 06:50:22;;;;;;;31.40;20.13;;;;;;;;;;5095567;28;20032;-74
2020/12/12 06:52:53;;;;;;;34.13;21.92;;;;;;;;;;5095853;28;20071;-75
2020/12/12 06:55:20;;;;;;;34.03;21.40;;;;;;;;;;5094410;28;20363;-75
2020/12/12 06:57:47;;;;;;;29.88;19.35;;;;;;;;;;5095898;28;20046;-76
2020/12/12 07:00:20;;;;;;;29.90;19.40;;;;;;;;;;5095292;28;20044;-76
2020/12/12 07:02:57;;;;;;;32.40;20.33;;;;;;;;;;5095325;28;20039;-76
2020/12/12 07:05:24;;;;;;;27.90;18.98;;;;;;;;;;5094132;28;20062;-76
2020/12/12 07:07:49;;;;;;;29.23;19.75;;;;;;;;;;5095396;28;20182;-76
2020/12/12 07:10:15;;;;;;;30.13;20.05;;;;;;;;;;5095339;28;20119;-76
2020/12/12 07:12:41;;;;;;;32.30;20.65;;;;;;;;;;5095250;28;20486;-76
2020/12/12 07:15:07;;;;;;;31.42;21.42;;;;;;;;;;5095118;28;20450;-76
2020/12/12 07:17:33;;;;;;;32.85;21.38;;;;;;;;;;5094929;28;20044;-76
2020/12/12 07:19:59;;;;;;;29.67;20.25;;;;;;;;;;5095234;28;20093;-75
2020/12/12 07:22:26;;;;;;;32.00;21.52;;;;;;;;;;5095092;28;20059;-75
2020/12/12 07:24:52;;;;;;;30.67;20.55;;;;;;;;;;5095033;28;20040;-76
2020/12/12 07:27:17;;;;;;;29.67;18.45;;;;;;;;;;5094968;28;20040;-75
2020/12/12 07:29:42;;;;;;;27.20;18.48;;;;;;;;;;5094922;28;20481;-76
2020/12/12 07:32:08;;;;;;;32.25;21.27;;;;;;;;;;5094903;28;20036;-75
2020/12/12 07:34:33;;;;;;;34.67;21.92;;;;;;;;;;5094837;28;20058;-75
2020/12/12 07:37:07;;;;;;;28.98;19.33;;;;;;;;;;5094826;28;20028;-75
2020/12/12 07:39:38;;;;;;;28.90;18.90;;;;;;;;;;5094823;28;20032;-76
2020/12/12 07:42:05;;;;;;;33.65;21.20;;;;;;;;;;5094730;28;20063;-75
2020/12/12 07:44:35;;;;;;;31.83;19.45;;;;;;;;;;5094905;28;20115;-77
2020/12/12 07:47:03;;;;;;;28.92;19.60;;;;;;;;;;5094536;28;20450;-77
2020/12/12 07:49:30;;;;;;;26.30;16.90;;;;;;;;;;5094540;28;20036;-76
2020/12/12 07:52:14;;;;;;;24.25;16.70;;;;;;;;;;5094552;28;20047;-74
2020/12/12 07:55:06;;;;;;;27.00;18.27;;;;;;;;;;5094456;28;20043;-76
2020/12/12 07:57:27;;;;;;;28.90;18.85;;;;;;;;;;5094322;28;20048;-75
2020/12/12 08:00:05;;;;;;;30.23;19.48;;;;;;;;;;5094180;28;20120;-76
2020/12/12 08:02:38;;;;;;;32.63;21.00;;;;;;;;;;5094103;28;20032;-76
2020/12/12 08:05:05;;;;;;;32.38;21.13;;;;;;;;;;5094185;28;20067;-75
2020/12/12 08:07:34;;;;;;;30.55;20.40;;;;;;;;;;5092954;28;20067;-74
2020/12/12 08:10:01;;;;;;;34.08;21.88;;;;;;;;;;5094008;28;20032;-73
2020/12/12 08:12:29;;;;;;;33.05;19.67;;;;;;;;;;5094068;28;20088;-74
2020/12/12 08:15:00;;;;;;;33.10;21.67;;;;;;;;;;5093012;28;20032;-75
2020/12/12 08:17:27;;;;;;;29.92;19.80;;;;;;;;;;5093919;28;20032;-73
2020/12/12 08:19:53;;;;;;;33.55;21.00;;;;;;;;;;5094051;28;20032;-74
2020/12/12 08:22:20;;;;;;;30.65;19.50;;;;;;;;;;5092703;28;20123;-74
2020/12/12 08:24:48;;;;;;;28.88;19.05;;;;;;;;;;5093920;28;20046;-74
2020/12/12 08:27:16;;;;;;;32.15;20.52;;;;;;;;;;5094023;28;20077;-75
2020/12/12 08:29:49;;;;;;;27.52;17.92;;;;;;;;;;5093709;28;20040;-74
2020/12/12 08:32:33;;;;;;;27.38;17.05;;;;;;;;;;5093614;28;20040;-75
2020/12/12 08:35:29;;;;;;;27.08;17.77;;;;;;;;;;5093726;28;20039;-74
2020/12/12 08:38:00;;;;;;;30.00;18.58;;;;;;;;;;5093813;28;20035;-74
2020/12/12 08:40:31;;;;;;;31.58;20.73;;;;;;;;;;5093743;28;20043;-75
2020/12/12 08:42:58;;;;;;;33.22;22.25;;;;;;;;;;5093815;28;20093;-74
2020/12/12 08:45:24;;;;;;;33.20;21.33;;;;;;;;;;5093579;28;20051;-75
2020/12/12 08:48:19;;;;;;;32.40;21.05;;;;;;;;;;5093491;28;20479;-75
2020/12/12 08:50:47;;;;;;;29.05;19.40;;;;;;;;;;5088657;28;20413;-76
2020/12/12 08:53:20;;;;;;;29.05;19.77;;;;;;;;;;5093011;28;20036;-76
2020/12/12 08:56:04;;;;;;;30.75;19.30;;;;;;;;;;5093571;28;20032;-76
2020/12/12 08:58:36;;;;;;;29.75;17.85;;;;;;;;;;5093191;28;20184;-76
2020/12/12 09:01:17;;;;;;;33.22;22.45;;;;;;;;;;5093452;28;20028;-76
2020/12/12 09:03:52;;;;;;;37.35;21.90;;;;;;;;;;5093143;28;20514;-76
2020/12/12 09:06:17;;;;;;;37.88;22.52;;;;;;;;;;5093409;28;20035;-75
2020/12/12 09:08:43;;;;;;;38.47;23.58;;;;;;;;;;5093407;28;20044;-75
2020/12/12 09:11:17;;;;;;;34.03;20.05;;;;;;;;;;5078934;28;20042;-77
2020/12/12 09:13:43;;;;;;;28.48;18.40;;;;;;;;;;5073259;28;20098;-78
2020/12/12 09:16:10;;;;;;;33.10;19.58;;;;;;;;;;5073090;28;20440;-76
2020/12/12 09:18:45;;;;;;;33.83;19.42;;;;;;;;;;5078046;28;20024;-75
2020/12/12 09:21:11;;;;;;;31.08;19.42;;;;;;;;;;5093191;28;20040;-75
2020/12/12 09:23:37;;;;;;;37.35;22.10;;;;;;;;;;5091849;28;20478;-77
2020/12/12 09:26:04;;;;;;;30.20;19.77;;;;;;;;;;5094509;28;20036;-77
2020/12/12 09:28:29;;;;;;;27.77;17.67;;;;;;;;;;5098292;28;20044;-82
2020/12/12 09:30:55;;;;;;;28.23;18.58;;;;;;;;;;5097336;28;20078;-79
2020/12/12 09:33:20;;;;;;;31.13;19.23;;;;;;;;;;5093777;28;20032;-77
2020/12/12 09:35:45;;;;;;;29.27;19.05;;;;;;;;;;5093776;28;20039;-75
2020/12/12 09:38:11;;;;;;;31.08;19.38;;;;;;;;;;5093699;28;20059;-75
2020/12/12 09:40:36;;;;;;;26.58;18.35;;;;;;;;;;5093185;28;20382;-77
2020/12/12 09:43:01;;;;;;;31.20;20.38;;;;;;;;;;5093334;28;20044;-76
2020/12/12 09:45:27;;;;;;;32.72;21.33;;;;;;;;;;5093195;28;20040;-76
2020/12/12 09:47:52;;;;;;;32.33;19.90;;;;;;;;;;5092861;28;20035;-76
2020/12/12 09:50:17;;;;;;;26.17;16.35;;;;;;;;;;5092989;28;20074;-76
2020/12/12 09:52:43;;;;;;;28.13;17.55;;;;;;;;;;5093120;28;20126;-76
2020/12/12 09:55:08;;;;;;;28.10;18.25;;;;;;;;;;5092936;28;20557;-74
2020/12/12 09:57:33;;;;;;;28.48;18.45;;;;;;;;;;5093100;28;20057;-74
2020/12/12 09:59:59;;;;;;;28.05;17.40;;;;;;;;;;5092819;28;20041;-74
2020/12/12 10:02:24;;;;;;;29.92;18.15;;;;;;;;;;5092700;28;20039;-74
2020/12/12 10:04:50;;;;;;;25.88;16.70;;;;;;;;;;5093771;28;20036;-75
2020/12/12 10:07:17;;;;;;;28.27;17.60;;;;;;;;;;5096645;28;20040;-75
2020/12/12 10:09:42;;;;;;;25.08;15.50;;;;;;;;;;5096471;28;20047;-75
2020/12/12 10:12:07;;;;;;;23.25;14.88;;;;;;;;;;5095174;28;20032;-75
2020/12/12 10:14:33;;;;;;;24.92;16.75;;;;;;;;;;5095293;28;20063;-73
2020/12/12 10:16:58;;;;;;;23.77;15.43;;;;;;;;;;5097179;28;20047;-80
2020/12/12 10:19:24;;;;;;;21.70;13.63;;;;;;;;;;5108992;28;20118;-77
2020/12/12 10:21:49;;;;;;;24.30;14.90;;;;;;;;;;5116650;28;20032;-74
2020/12/12 10:24:14;;;;;;;20.05;13.57;;;;;;;;;;5113668;28;20461;-76
2020/12/12 10:26:40;;;;;;;23.23;14.55;;;;;;;;;;5078823;28;20039;-74
2020/12/12 10:29:05;;;;;;;23.60;14.25;;;;;;;;;;5081525;28;20037;-74
2020/12/12 10:31:31;;;;;;;23.10;14.27;;;;;;;;;;5082483;28;20064;-77
2020/12/12 10:33:56;;;;;;;21.38;14.13;;;;;;;;;;5076179;28;20036;-76
2020/12/12 10:36:21;;;;;;;21.50;13.68;;;;;;;;;;5076176;28;20087;-77
2020/12/12 10:38:47;;;;;;;23.17;12.73;;;;;;;;;;5075961;28;20033;-75
2020/12/12 10:41:12;;;;;;;19.73;12.70;;;;;;;;;;5075975;28;20040;-76
2020/12/12 10:43:39;;;;;;;20.35;13.70;;;;;;;;;;5076145;28;20036;-76
2020/12/12 10:46:04;;;;;;;22.65;14.18;;;;;;;;;;5076489;28;20505;-76
2020/12/12 10:48:30;;;;;;;22.48;14.20;;;;;;;;;;5075591;28;20037;-75
2020/12/12 10:50:55;;;;;;;23.98;14.50;;;;;;;;;;5075664;28;20082;-75
2020/12/12 10:53:21;;;;;;;20.45;13.07;;;;;;;;;;5076044;28;20442;-75
2020/12/12 10:55:46;;;;;;;24.52;15.60;;;;;;;;;;5075720;28;20020;-76
2020/12/12 10:58:11;;;;;;;24.33;13.93;;;;;;;;;;5075581;28;20041;-76
2020/12/12 11:00:43;;;;;;;20.10;13.13;;;;;;;;;;5075725;28;20047;-74
2020/12/12 11:03:08;;;;;;;19.35;12.77;;;;;;;;;;5074311;28;20037;-78
2020/12/12 11:05:35;;;;;;;21.08;13.15;;;;;;;;;;5075717;28;20040;-76
2020/12/12 11:08:00;;;;;;;22.08;14.15;;;;;;;;;;5076595;28;20032;-76
2020/12/12 11:10:26;;;;;;;21.50;13.00;;;;;;;;;;5075837;28;20405;-77
2020/12/12 11:12:51;;;;;;;18.23;12.73;;;;;;;;;;5075344;28;20040;-75
2020/12/12 11:15:17;;;;;;;22.67;13.88;;;;;;;;;;5074846;28;20033;-77
2020/12/12 11:17:44;;;;;;;20.85;12.15;;;;;;;;;;5075329;28;20039;-76
2020/12/12 11:20:11;;;;;;;17.38;11.07;;;;;;;;;;5112663;28;20038;-77
2020/12/12 11:22:36;;;;;;;18.55;11.93;;;;;;;;;;5116818;28;20054;-77
2020/12/12 11:25:03;;;;;;;17.80;11.77;;;;;;;;;;5116093;28;20457;-76
2020/12/12 11:27:29;;;;;;;18.90;12.18;;;;;;;;;;5114325;28;20415;-75
2020/12/12 11:29:55;;;;;;;21.30;12.35;;;;;;;;;;5114159;28;20097;-75
2020/12/12 11:32:21;;;;;;;17.88;12.20;;;;;;;;;;5115239;28;20050;-75
2020/12/12 11:34:50;;;;;;;16.20;11.18;;;;;;;;;;5114000;28;20108;-75
2020/12/12 11:37:25;;;;;;;16.13;11.02;;;;;;;;;;5115228;28;20045;-75
2020/12/12 11:40:04;;;;;;;18.17;12.32;;;;;;;;;;5115299;28;20054;-75
2020/12/12 11:42:45;;;;;;;18.33;11.38;;;;;;;;;;5115006;28;20100;-73
2020/12/12 11:47:39;;;;;;;17.45;12.85;;;;;;;;;;5114835;28;20040;-75
2020/12/12 11:50:05;;;;;;;21.60;13.73;;;;;;;;;;5096858;28;20029;-72
2020/12/12 11:52:36;;;;;;;18.27;12.45;;;;;;;;;;5094857;28;20036;-75
2020/12/12 11:55:01;;;;;;;16.80;11.02;;;;;;;;;;5094319;28;20039;-74
2020/12/12 11:57:26;;;;;;;17.10;11.00;;;;;;;;;;5093033;28;20032;-74
2020/12/12 11:59:55;;;;;;;19.08;12.27;;;;;;;;;;5076109;28;20423;-73
2020/12/12 12:02:20;;;;;;;16.80;11.35;;;;;;;;;;5093993;28;20036;-74
2020/12/12 12:04:46;;;;;;;15.95;10.45;;;;;;;;;;5094375;28;20038;-73
2020/12/12 12:07:12;;;;;;;20.70;10.15;;;;;;;;;;5094328;28;20024;-73
2020/12/12 12:09:43;;;;;;;18.98;11.60;;;;;;;;;;5094134;28;20046;-74
2020/12/12 12:12:09;;;;;;;18.10;11.75;;;;;;;;;;5094471;28;20038;-75
2020/12/12 12:14:34;;;;;;;20.60;13.93;;;;;;;;;;5095178;28;20043;-74
2020/12/12 12:17:00;;;;;;;15.05;10.98;;;;;;;;;;5095869;28;20044;-77
2020/12/12 12:19:25;;;;;;;19.30;11.52;;;;;;;;;;5092442;28;20032;-74
2020/12/12 12:21:52;;;;;;;18.13;11.52;;;;;;;;;;5094018;28;20068;-74
2020/12/12 12:24:18;;;;;;;17.40;11.85;;;;;;;;;;5094046;28;20031;-74
2020/12/12 12:26:48;;;;;;;18.92;11.75;;;;;;;;;;5093738;28;20067;-74
2020/12/12 12:29:14;;;;;;;19.02;11.77;;;;;;;;;;5093520;28;20093;-74
2020/12/12 12:31:41;;;;;;;19.40;12.15;;;;;;;;;;5093903;28;20082;-74
2020/12/12 12:34:07;;;;;;;19.73;13.02;;;;;;;;;;5093643;28;20032;-74
2020/12/12 12:36:33;;;;;;;20.85;13.20;;;;;;;;;;5093664;28;20205;-73
2020/12/12 12:39:00;;;;;;;23.88;13.70;;;;;;;;;;5093695;28;20028;-74
2020/12/12 12:41:27;;;;;;;17.70;11.85;;;;;;;;;;5093692;28;20172;-74
2020/12/12 12:43:52;;;;;;;16.25;10.55;;;;;;;;;;5093586;28;20032;-74
2020/12/12 12:46:21;;;;;;;20.58;11.85;;;;;;;;;;5093686;28;20124;-74
2020/12/12 12:48:48;;;;;;;19.73;12.48;;;;;;;;;;5092005;28;20032;-74
2020/12/12 12:51:14;;;;;;;19.23;10.68;;;;;;;;;;5092649;28;20169;-74
2020/12/12 12:53:39;;;;;;;17.15;11.50;;;;;;;;;;5093723;28;20063;-74
2020/12/12 12:56:05;;;;;;;15.18;10.70;;;;;;;;;;5093543;28;20122;-74
2020/12/12 12:58:30;;;;;;;19.05;11.35;;;;;;;;;;5093493;28;20056;-74
2020/12/12 13:00:55;;;;;;;15.88;10.45;;;;;;;;;;5093421;28;20032;-74
2020/12/12 13:03:23;;;;;;;19.88;11.98;;;;;;;;;;5093406;28;20067;-73
2020/12/12 13:05:49;;;;;;;16.77;10.73;;;;;;;;;;5093520;28;20093;-74
2020/12/12 13:08:16;;;;;;;19.42;11.63;;;;;;;;;;5093550;28;20040;-74
2020/12/12 13:10:41;;;;;;;17.75;11.60;;;;;;;;;;5093329;28;20470;-74
2020/12/12 13:13:07;;;;;;;18.08;12.23;;;;;;;;;;5093390;28;20048;-74
2020/12/12 13:15:33;;;;;;;18.90;11.48;;;;;;;;;;5092021;28;20043;-74
2020/12/12 13:18:03;;;;;;;16.80;11.25;;;;;;;;;;5093216;28;20044;-74
2020/12/12 13:20:36;;;;;;;16.50;11.65;;;;;;;;;;5093262;28;20538;-74
2020/12/12 13:23:02;;;;;;;17.45;11.23;;;;;;;;;;5092262;28;20040;-74
2020/12/12 13:25:27;;;;;;;21.00;11.48;;;;;;;;;;5093160;28;20043;-74
2020/12/12 13:28:35;;;;;;;16.88;10.45;;;;;;;;;;5093334;28;20035;-74
2020/12/12 13:31:03;;;;;;;15.30;10.60;;;;;;;;;;5093010;28;20043;-74
2020/12/12 13:33:24;;;;;;;26.67;11.13;;;;;;;;;;5092796;28;20044;-74
2020/12/12 13:35:49;;;;;;;17.75;11.30;;;;;;;;;;5093322;28;20028;-74
2020/12/12 13:38:15;;;;;;;16.75;10.88;;;;;;;;;;5093161;28;20032;-74
2020/12/12 13:40:40;;;;;;;19.38;11.07;;;;;;;;;;5097323;28;20028;-74
2020/12/12 13:43:05;;;;;;;18.40;11.75;;;;;;;;;;5097146;28;20028;-74
2020/12/12 13:45:31;;;;;;;16.35;11.10;;;;;;;;;;5096962;28;20032;-74
2020/12/12 13:47:56;;;;;;;17.25;11.60;;;;;;;;;;5096801;28;20358;-74
2020/12/12 13:50:21;;;;;;;17.40;12.40;;;;;;;;;;5096945;28;20128;-74
2020/12/12 13:52:47;;;;;;;17.52;11.95;;;;;;;;;;5096994;28;20111;-74
2020/12/12 13:55:12;;;;;;;17.83;11.48;;;;;;;;;;5096796;28;20451;-74
2020/12/12 13:57:37;;;;;;;16.33;11.85;;;;;;;;;;5096679;28;20090;-74
2020/12/12 14:00:04;;;;;;;18.17;12.75;;;;;;;;;;5096669;28;20049;-74
2020/12/12 14:02:36;;;;;;;20.85;14.20;;;;;;;;;;5096710;28;20054;-74
2020/12/12 14:05:01;;;;;;;21.33;13.00;;;;;;;;;;5096581;28;20043;-74
2020/12/12 14:07:30;;;;;;;16.65;11.70;;;;;;;;;;5096578;28;20118;-74
2020/12/12 14:10:16;;;;;;;19.05;11.23;;;;;;;;;;5096598;28;20039;-74
2020/12/12 14:21:11;;;;;;;19.05;11.05;;;;;;;;;;5096443;28;20055;-74
2020/12/12 14:23:37;;;;;;;19.58;12.25;;;;;;;;;;5095262;28;20040;-74
2020/12/12 14:28:38;;;;;;;17.92;11.77;;;;;;;;;;5096291;28;20067;-74
2020/12/12 14:31:04;;;;;;;17.42;11.13;;;;;;;;;;5096205;28;20044;-75
2020/12/12 14:33:29;;;;;;;19.17;11.35;;;;;;;;;;5096109;28;20074;-73